Time;durP1;ratioP1;P1;durP2;ratioP2;P2;SDS_P1;SDS_P2;PMS_P1;PMS_P2;Temp;Humidity;BMP_temperature;BMP_pressure;BME280_temperature;BME280_humidity;BME280_pressure;Samples;Min_cycle;Max_cycle;Signal;HPM_P1;HPM_P2
2021/11/04 00:01:00;;;;;;;6.88;2.50;;;17.90;99.90;;;;;;5093255;28;20053;-71
2021/11/04 00:03:27;;;;;;;6.47;2.55;;;17.90;99.90;;;;;;5092748;28;20020;-71
2021/11/04 00:05:52;;;;;;;5.70;2.50;;;17.90;99.90;;;;;;5092956;28;20537;-71
2021/11/04 00:08:19;;;;;;;4.93;2.40;;;17.90;99.90;;;;;;5092601;28;20028;-71
2021/11/04 00:10:45;;;;;;;6.20;2.80;;;17.90;99.90;;;;;;5093072;28;20023;-71
2021/11/04 00:13:10;;;;;;;4.95;2.53;;;17.90;99.90;;;;;;5092544;28;20032;-71
2021/11/04 00:15:36;;;;;;;5.55;2.33;;;17.80;99.90;;;;;;5092675;28;20103;-71
2021/11/04 00:18:02;;;;;;;4.20;2.50;;;17.90;99.90;;;;;;5092899;28;20028;-71
2021/11/04 00:20:28;;;;;;;5.93;2.70;;;17.90;99.90;;;;;;5092355;28;20024;-71
2021/11/04 00:22:54;;;;;;;6.05;2.60;;;17.90;99.90;;;;;;5091335;28;20028;-71
2021/11/04 00:25:20;;;;;;;5.20;2.47;;;17.90;99.90;;;;;;5092333;28;20388;-71
2021/11/04 00:27:46;;;;;;;7.10;2.95;;;17.90;99.90;;;;;;5092494;28;20062;-72
2021/11/04 00:30:12;;;;;;;4.20;2.50;;;17.90;99.90;;;;;;5092118;28;20035;-72
2021/11/04 00:32:47;;;;;;;4.65;2.45;;;17.90;99.90;;;;;;5092400;28;20056;-71
2021/11/04 00:35:13;;;;;;;4.72;2.78;;;17.90;99.90;;;;;;5092173;28;20016;-72
2021/11/04 00:37:39;;;;;;;5.38;2.70;;;17.90;99.90;;;;;;5092376;28;20028;-71
2021/11/04 00:40:07;;;;;;;4.18;2.53;;;17.90;99.90;;;;;;5092105;28;20020;-72
2021/11/04 00:42:33;;;;;;;4.57;2.67;;;17.90;99.90;;;;;;5092295;28;20521;-71
2021/11/04 00:44:59;;;;;;;4.07;2.25;;;17.90;99.90;;;;;;5092258;28;20021;-71
2021/11/04 00:47:24;;;;;;;4.32;2.58;;;17.90;99.90;;;;;;5091874;28;20102;-71
2021/11/04 00:49:50;;;;;;;4.43;2.80;;;17.90;99.90;;;;;;5092075;28;20109;-71
2021/11/04 00:52:16;;;;;;;5.03;2.65;;;17.90;99.90;;;;;;5091837;28;20384;-71
2021/11/04 00:54:41;;;;;;;3.88;2.38;;;17.90;99.90;;;;;;5091957;28;20042;-71
2021/11/04 00:57:07;;;;;;;3.33;2.20;;;17.90;99.90;;;;;;5091456;28;20096;-71
2021/11/04 00:59:33;;;;;;;4.45;2.72;;;17.80;99.90;;;;;;5092014;28;20031;-71
2021/11/04 01:01:58;;;;;;;2.85;2.33;;;17.80;99.90;;;;;;5091923;28;20426;-71
2021/11/04 01:04:24;;;;;;;4.35;2.63;;;17.80;99.90;;;;;;5090505;28;20531;-71
2021/11/04 01:06:50;;;;;;;6.63;2.50;;;17.90;99.90;;;;;;5091786;28;20024;-71
2021/11/04 01:09:16;;;;;;;4.22;2.97;;;17.80;99.90;;;;;;5091450;28;20027;-72
2021/11/04 01:11:42;;;;;;;4.35;2.40;;;17.80;99.90;;;;;;5091535;28;20036;-72
2021/11/04 01:14:07;;;;;;;4.25;2.65;;;17.80;99.90;;;;;;5091656;28;20016;-72
2021/11/04 01:16:33;;;;;;;4.50;2.97;;;17.80;99.90;;;;;;5092123;28;20050;-71
2021/11/04 01:18:59;;;;;;;4.95;2.65;;;17.80;99.90;;;;;;5091662;28;20031;-71
2021/11/04 01:21:24;;;;;;;3.92;2.80;;;17.80;99.90;;;;;;5091356;28;20119;-71
2021/11/04 01:23:50;;;;;;;5.28;2.67;;;17.80;99.90;;;;;;5091646;28;20028;-71
2021/11/04 01:26:16;;;;;;;5.53;2.80;;;17.80;99.90;;;;;;5091324;28;20518;-71
2021/11/04 01:28:42;;;;;;;4.35;2.63;;;17.80;99.90;;;;;;5091569;28;20028;-71
2021/11/04 01:31:07;;;;;;;3.10;2.42;;;17.80;99.90;;;;;;5091291;28;20024;-71
2021/11/04 01:33:33;;;;;;;5.03;2.92;;;17.80;99.90;;;;;;5091819;28;20028;-71
2021/11/04 01:35:59;;;;;;;3.50;2.50;;;17.80;99.90;;;;;;5091511;28;20115;-71
2021/11/04 01:38:25;;;;;;;3.85;2.80;;;17.80;99.90;;;;;;5091106;28;20488;-70
2021/11/04 01:40:51;;;;;;;4.15;2.75;;;17.80;99.90;;;;;;5092358;28;20027;-71
2021/11/04 01:43:17;;;;;;;4.70;2.67;;;17.90;99.90;;;;;;5095555;28;20472;-71
2021/11/04 01:45:43;;;;;;;4.15;2.60;;;17.80;99.90;;;;;;5095658;28;20099;-71
2021/11/04 01:48:08;;;;;;;7.85;2.58;;;17.90;99.90;;;;;;5095413;28;20082;-71
2021/11/04 01:50:35;;;;;;;3.90;2.50;;;17.80;99.90;;;;;;5094593;28;20027;-71
2021/11/04 01:53:00;;;;;;;4.13;2.50;;;17.80;99.90;;;;;;5095756;28;20472;-71
2021/11/04 01:55:28;;;;;;;10.85;3.20;;;17.80;99.90;;;;;;5095095;28;20032;-71
2021/11/04 01:57:56;;;;;;;3.33;2.45;;;17.80;99.90;;;;;;5095194;28;20034;-71
2021/11/04 02:00:25;;;;;;;4.93;2.90;;;17.80;99.90;;;;;;5095157;28;20016;-71
2021/11/04 02:02:51;;;;;;;4.97;2.80;;;17.90;99.90;;;;;;5095379;28;20013;-71
2021/11/04 02:05:20;;;;;;;4.03;2.65;;;17.80;99.90;;;;;;5095050;28;20073;-71
2021/11/04 02:07:56;;;;;;;3.88;2.75;;;17.80;99.90;;;;;;5095300;28;20033;-71
2021/11/04 02:10:34;;;;;;;5.60;2.55;;;17.90;99.90;;;;;;5094971;28;20023;-71
2021/11/04 02:13:17;;;;;;;3.53;2.50;;;17.80;99.90;;;;;;5095545;28;20109;-71
2021/11/04 02:15:47;;;;;;;3.28;2.55;;;17.90;99.90;;;;;;5095040;28;20016;-71
2021/11/04 02:18:14;;;;;;;4.65;2.55;;;17.90;99.90;;;;;;5095049;28;20024;-71
2021/11/04 02:20:48;;;;;;;4.28;2.67;;;17.90;99.90;;;;;;5094957;28;20024;-72
2021/11/04 02:23:26;;;;;;;3.90;2.55;;;17.90;99.90;;;;;;5094770;28;20477;-71
2021/11/04 02:25:53;;;;;;;3.50;2.50;;;17.80;99.90;;;;;;5095025;28;20482;-72
2021/11/04 02:28:19;;;;;;;4.75;2.55;;;17.80;99.90;;;;;;5094624;28;20024;-71
2021/11/04 02:30:47;;;;;;;3.93;2.60;;;17.90;99.90;;;;;;5094693;28;20375;-71
2021/11/04 02:33:15;;;;;;;5.38;2.88;;;17.90;99.90;;;;;;5093147;28;20039;-71
2021/11/04 02:35:47;;;;;;;3.97;2.53;;;17.90;99.90;;;;;;5094705;28;20024;-71
2021/11/04 02:38:18;;;;;;;5.20;2.40;;;17.90;99.90;;;;;;5094603;28;20036;-71
2021/11/04 02:40:45;;;;;;;8.02;2.92;;;17.90;99.90;;;;;;5094786;28;20364;-71
2021/11/04 02:43:13;;;;;;;4.95;2.80;;;17.90;99.90;;;;;;5094307;28;20016;-71
2021/11/04 02:45:40;;;;;;;4.43;2.60;;;17.90;99.90;;;;;;5094609;28;20047;-71
2021/11/04 02:48:06;;;;;;;4.32;2.20;;;17.90;99.90;;;;;;5093013;28;20468;-71
2021/11/04 02:50:32;;;;;;;4.28;2.80;;;17.90;99.90;;;;;;5093260;28;20024;-71
2021/11/04 02:52:57;;;;;;;5.57;2.70;;;17.90;99.90;;;;;;5094381;28;20036;-71
2021/11/04 02:55:35;;;;;;;3.47;2.47;;;17.90;99.90;;;;;;5094028;28;20027;-71
2021/11/04 02:58:08;;;;;;;6.10;2.85;;;17.90;99.90;;;;;;5094417;28;20039;-71
2021/11/04 03:00:36;;;;;;;3.17;2.33;;;17.90;99.90;;;;;;5094426;28;20056;-71
2021/11/04 03:03:03;;;;;;;6.85;3.00;;;17.90;99.90;;;;;;5094670;28;20483;-71
2021/11/04 03:05:28;;;;;;;4.43;2.53;;;17.90;99.90;;;;;;5092940;28;20032;-71
2021/11/04 03:07:54;;;;;;;3.17;2.30;;;17.90;99.90;;;;;;5094119;28;20035;-71
2021/11/04 03:10:20;;;;;;;4.55;2.58;;;18.00;99.90;;;;;;5093693;28;20499;-71
2021/11/04 03:12:46;;;;;;;3.97;2.53;;;18.00;99.90;;;;;;5093892;28;20049;-70
2021/11/04 03:15:22;;;;;;;3.85;2.45;;;18.00;99.90;;;;;;5093715;28;20019;-71
2021/11/04 03:17:49;;;;;;;3.35;2.35;;;18.00;99.90;;;;;;5093996;28;20376;-69
2021/11/04 03:20:17;;;;;;;4.40;2.70;;;18.00;99.90;;;;;;5093458;28;20524;-70
2021/11/04 03:22:44;;;;;;;5.35;2.88;;;18.00;99.90;;;;;;5093731;28;20517;-70
2021/11/04 03:25:14;;;;;;;5.55;3.08;;;18.00;99.90;;;;;;5093381;28;20051;-73
2021/11/04 03:27:42;;;;;;;4.90;2.53;;;18.00;99.90;;;;;;5093714;28;20043;-70
2021/11/04 03:30:11;;;;;;;6.30;3.05;;;18.00;99.90;;;;;;5093422;28;20024;-71
2021/11/04 03:32:38;;;;;;;3.97;2.40;;;18.00;99.90;;;;;;5093589;28;20140;-71
2021/11/04 03:35:06;;;;;;;3.33;2.55;;;18.00;99.90;;;;;;5093794;28;20034;-71
2021/11/04 03:37:34;;;;;;;3.53;2.45;;;18.00;99.90;;;;;;5092342;28;20391;-70
2021/11/04 03:40:00;;;;;;;3.25;2.47;;;18.00;99.90;;;;;;5093874;28;20440;-71
2021/11/04 03:42:27;;;;;;;4.40;2.58;;;18.00;99.90;;;;;;5093390;28;20023;-71
2021/11/04 03:44:53;;;;;;;5.10;2.65;;;18.10;99.90;;;;;;5093271;28;20032;-70
2021/11/04 03:47:19;;;;;;;4.25;2.58;;;18.00;99.90;;;;;;5093097;28;20528;-70
2021/11/04 03:49:49;;;;;;;11.80;2.83;;;18.00;99.90;;;;;;5091890;28;20124;-70
2021/11/04 03:52:15;;;;;;;5.53;2.72;;;18.10;99.90;;;;;;5092640;28;20388;-71
2021/11/04 03:54:41;;;;;;;5.20;2.63;;;18.10;99.90;;;;;;5093229;28;20016;-72
2021/11/04 03:57:07;;;;;;;4.72;2.88;;;18.10;99.90;;;;;;5091654;28;20027;-71
2021/11/04 03:59:33;;;;;;;4.82;2.40;;;18.10;99.90;;;;;;5093316;28;20024;-71
2021/11/04 04:01:59;;;;;;;5.45;2.40;;;18.10;99.90;;;;;;5092811;28;20373;-71
2021/11/04 04:04:24;;;;;;;3.97;2.53;;;18.10;99.90;;;;;;5092042;28;20345;-71
2021/11/04 04:06:54;;;;;;;3.55;2.40;;;18.10;99.90;;;;;;5092820;28;20065;-71
2021/11/04 04:09:24;;;;;;;3.65;2.25;;;18.10;99.90;;;;;;5092652;28;20016;-71
2021/11/04 04:11:51;;;;;;;3.85;2.38;;;18.20;99.90;;;;;;5092773;28;20020;-71
2021/11/04 04:14:17;;;;;;;4.55;2.70;;;18.20;99.90;;;;;;5092494;28;20020;-71
2021/11/04 04:16:42;;;;;;;3.10;2.30;;;18.20;99.90;;;;;;5092788;28;20042;-71
2021/11/04 04:19:09;;;;;;;7.10;2.60;;;18.20;99.90;;;;;;5092457;28;20020;-71
2021/11/04 04:21:35;;;;;;;6.85;2.10;;;18.20;99.90;;;;;;5092642;28;20383;-71
2021/11/04 04:24:00;;;;;;;11.27;2.25;;;18.20;99.90;;;;;;5092799;28;20020;-71
2021/11/04 04:26:26;;;;;;;3.85;2.42;;;18.20;99.90;;;;;;5092279;28;20376;-71
2021/11/04 04:28:51;;;;;;;2.78;2.20;;;18.20;99.90;;;;;;5092511;28;20107;-70
2021/11/04 04:31:17;;;;;;;3.10;2.40;;;18.30;99.90;;;;;;5092135;28;20463;-70
2021/11/04 04:33:43;;;;;;;3.13;2.30;;;18.30;99.90;;;;;;5092454;28;20117;-70
2021/11/04 04:36:08;;;;;;;4.32;2.38;;;18.30;99.90;;;;;;5092195;28;20468;-70
2021/11/04 04:38:34;;;;;;;6.32;2.50;;;18.30;99.90;;;;;;5092708;28;20391;-70
2021/11/04 04:41:00;;;;;;;4.63;2.40;;;18.30;99.90;;;;;;5091254;28;20097;-70
2021/11/04 04:43:26;;;;;;;3.38;2.00;;;18.30;99.90;;;;;;5091963;28;20024;-70
2021/11/04 04:45:52;;;;;;;5.05;2.30;;;18.30;99.90;;;;;;5092132;28;20027;-70
2021/11/04 04:48:17;;;;;;;7.57;2.33;;;18.30;99.90;;;;;;5092200;28;20043;-70
2021/11/04 04:50:43;;;;;;;2.80;2.22;;;18.30;99.90;;;;;;5092058;28;20024;-70
2021/11/04 04:53:09;;;;;;;3.78;2.20;;;18.30;99.90;;;;;;5091769;28;20028;-70
2021/11/04 04:55:35;;;;;;;4.38;2.40;;;18.30;99.90;;;;;;5092076;28;20100;-71
2021/11/04 04:58:01;;;;;;;2.97;1.90;;;18.30;99.90;;;;;;5092172;28;20036;-70
2021/11/04 05:00:27;;;;;;;3.65;2.30;;;18.30;99.90;;;;;;5091809;28;20038;-75
2021/11/04 05:02:53;;;;;;;3.25;2.10;;;18.30;99.90;;;;;;5091815;28;20028;-71
2021/11/04 05:05:19;;;;;;;4.53;2.05;;;18.30;99.90;;;;;;5090532;28;20027;-71
2021/11/04 05:07:45;;;;;;;2.80;1.95;;;18.40;99.90;;;;;;5091937;28;20115;-71
2021/11/04 05:10:12;;;;;;;4.75;2.40;;;18.40;99.90;;;;;;5091608;28;20020;-72
2021/11/04 05:12:38;;;;;;;3.03;2.05;;;18.40;99.90;;;;;;5091696;28;20051;-72
2021/11/04 05:15:05;;;;;;;3.55;2.05;;;18.40;99.90;;;;;;5091350;28;20024;-73
2021/11/04 05:17:31;;;;;;;7.00;2.22;;;18.40;99.90;;;;;;5091849;28;20031;-71
2021/11/04 05:19:57;;;;;;;4.15;2.00;;;18.40;99.90;;;;;;5091689;28;20020;-71
2021/11/04 05:22:23;;;;;;;3.92;1.75;;;18.40;99.90;;;;;;5091464;28;20028;-71
2021/11/04 05:24:48;;;;;;;5.00;1.70;;;18.40;99.90;;;;;;5091505;28;20100;-71
2021/11/04 05:27:14;;;;;;;3.90;2.00;;;18.40;99.90;;;;;;5091344;28;20058;-72
2021/11/04 05:29:40;;;;;;;5.18;1.90;;;18.40;99.90;;;;;;5091580;28;20488;-71
2021/11/04 05:32:09;;;;;;;4.15;1.98;;;18.40;99.90;;;;;;5091147;28;20032;-71
2021/11/04 05:34:36;;;;;;;2.78;1.50;;;18.40;99.90;;;;;;5091696;28;20016;-71
2021/11/04 05:37:03;;;;;;;3.53;1.70;;;18.40;99.90;;;;;;5091801;28;20502;-71
2021/11/04 05:39:29;;;;;;;4.68;1.85;;;18.50;99.90;;;;;;5091252;28;20052;-73
2021/11/04 05:41:54;;;;;;;6.15;2.05;;;18.50;99.90;;;;;;5091520;28;20533;-72
2021/11/04 05:44:20;;;;;;;3.33;1.98;;;18.50;99.90;;;;;;5091146;28;20016;-71
2021/11/04 05:46:46;;;;;;;2.80;1.67;;;18.50;99.90;;;;;;5091283;28;20107;-75
2021/11/04 05:49:11;;;;;;;6.65;2.20;;;18.50;99.90;;;;;;5089867;28;20020;-71
2021/11/04 05:51:37;;;;;;;4.80;1.80;;;18.50;99.90;;;;;;5091281;28;20502;-71
2021/11/04 05:54:03;;;;;;;2.72;1.88;;;18.50;99.90;;;;;;5091593;28;20032;-72
2021/11/04 05:56:28;;;;;;;18.15;2.38;;;18.50;99.90;;;;;;5091066;28;20415;-72
2021/11/04 05:58:54;;;;;;;5.60;1.80;;;18.50;99.90;;;;;;5091125;28;20493;-71
2021/11/04 06:01:19;;;;;;;9.02;1.90;;;18.50;99.90;;;;;;5091176;28;20032;-72
2021/11/04 06:03:45;;;;;;;3.67;1.70;;;18.50;99.90;;;;;;5091195;28;20099;-72
2021/11/04 06:06:10;;;;;;;2.85;1.70;;;18.50;99.90;;;;;;5091255;28;20024;-71
2021/11/04 06:08:36;;;;;;;6.57;1.55;;;18.50;99.90;;;;;;5091317;28;20396;-71
2021/11/04 06:11:03;;;;;;;3.53;1.80;;;18.50;99.90;;;;;;5091506;28;20026;-71
2021/11/04 06:13:29;;;;;;;4.20;1.92;;;18.50;99.90;;;;;;5091055;28;20028;-71
2021/11/04 06:15:54;;;;;;;3.45;1.65;;;18.50;99.90;;;;;;5091202;28;20069;-71
2021/11/04 06:18:21;;;;;;;3.13;1.80;;;18.50;99.90;;;;;;5090896;28;20024;-71
2021/11/04 06:20:46;;;;;;;2.83;1.50;;;18.50;99.90;;;;;;5091042;28;20024;-71
2021/11/04 06:23:12;;;;;;;5.18;1.88;;;18.50;99.90;;;;;;5090703;28;20020;-72
2021/11/04 06:25:37;;;;;;;4.60;1.50;;;18.50;99.90;;;;;;5089871;28;20448;-72
2021/11/04 06:28:03;;;;;;;4.57;1.40;;;18.50;99.90;;;;;;5094274;28;20024;-71
2021/11/04 06:30:29;;;;;;;3.20;1.70;;;18.50;99.90;;;;;;5094582;28;20028;-73
2021/11/04 06:32:54;;;;;;;5.00;1.67;;;18.50;99.90;;;;;;5094762;28;20040;-68
2021/11/04 06:35:20;;;;;;;5.70;1.55;;;18.50;99.90;;;;;;5093448;28;20078;-67
2021/11/04 06:37:46;;;;;;;2.65;1.40;;;18.60;99.90;;;;;;5094714;28;20036;-67
2021/11/04 06:40:12;;;;;;;2.65;1.48;;;18.50;99.90;;;;;;5094582;28;20027;-68
2021/11/04 06:42:38;;;;;;;3.22;1.45;;;18.60;99.90;;;;;;5094769;28;20040;-67
2021/11/04 06:45:05;;;;;;;2.55;1.40;;;18.60;99.90;;;;;;5094842;28;20028;-69
2021/11/04 06:47:36;;;;;;;3.70;1.63;;;18.60;99.90;;;;;;5095016;28;20043;-68
2021/11/04 06:50:04;;;;;;;5.60;1.83;;;18.60;99.90;;;;;;5094959;28;20532;-67
2021/11/04 06:52:35;;;;;;;4.93;1.30;;;18.60;99.90;;;;;;5094798;28;20530;-67
2021/11/04 06:55:03;;;;;;;4.55;1.40;;;18.60;99.90;;;;;;5094709;28;20016;-68
2021/11/04 06:57:30;;;;;;;2.75;1.20;;;18.60;99.90;;;;;;5093847;28;20028;-70
2021/11/04 07:00:00;;;;;;;2.45;1.20;;;18.60;99.90;;;;;;5094496;28;20165;-67
2021/11/04 07:02:32;;;;;;;5.85;1.63;;;18.60;99.90;;;;;;5093932;28;20027;-75
2021/11/04 07:04:59;;;;;;;3.03;1.40;;;18.60;99.90;;;;;;5094196;28;20016;-70
2021/11/04 07:07:26;;;;;;;1.92;1.08;;;18.50;99.90;;;;;;5093725;28;20440;-69
2021/11/04 07:09:52;;;;;;;6.90;1.60;;;18.50;99.90;;;;;;5094083;28;20062;-68
2021/11/04 07:12:18;;;;;;;5.30;1.40;;;18.50;99.90;;;;;;5093777;28;20027;-69
2021/11/04 07:14:44;;;;;;;2.13;1.20;;;18.60;99.90;;;;;;5094105;28;20031;-69
2021/11/04 07:17:14;;;;;;;2.80;1.20;;;18.60;99.90;;;;;;5093908;28;20028;-68
2021/11/04 07:19:41;;;;;;;2.42;1.40;;;18.60;99.90;;;;;;5093984;28;20032;-68
2021/11/04 07:22:50;;;;;;;2.85;1.40;;;18.60;99.90;;;;;;5093809;28;20078;-67
2021/11/04 07:25:18;;;;;;;1.88;1.25;;;18.60;99.90;;;;;;5093857;28;20478;-69
2021/11/04 07:28:07;;;;;;;3.97;1.20;;;18.60;99.90;;;;;;5092624;28;20032;-69
2021/11/04 07:30:33;;;;;;;3.38;1.20;;;18.60;99.90;;;;;;5094147;28;20020;-70
2021/11/04 07:33:00;;;;;;;1.58;1.20;;;18.60;99.90;;;;;;5093477;28;20032;-69
2021/11/04 07:35:28;;;;;;;2.67;1.02;;;18.60;99.90;;;;;;5093695;28;20094;-68
2021/11/04 07:37:54;;;;;;;1.42;1.10;;;18.60;99.90;;;;;;5093203;28;20059;-69
2021/11/04 07:40:22;;;;;;;2.15;1.10;;;18.60;99.90;;;;;;5092915;28;20468;-68
2021/11/04 07:42:49;;;;;;;2.38;0.98;;;18.60;99.90;;;;;;5093722;28;20074;-69
2021/11/04 07:45:15;;;;;;;2.00;1.25;;;18.60;99.90;;;;;;5093244;28;20031;-68
2021/11/04 07:47:42;;;;;;;1.40;1.10;;;18.60;99.90;;;;;;5093384;28;20027;-69
2021/11/04 07:50:10;;;;;;;1.75;1.27;;;18.70;99.90;;;;;;5092987;28;20036;-69
2021/11/04 07:52:39;;;;;;;1.50;1.10;;;18.70;99.90;;;;;;5093249;28;20039;-68
2021/11/04 07:55:05;;;;;;;2.45;1.30;;;18.70;99.90;;;;;;5092157;28;20541;-68
2021/11/04 07:57:32;;;;;;;1.58;1.00;;;18.70;99.90;;;;;;5093473;28;20028;-69
2021/11/04 08:00:02;;;;;;;3.95;0.85;;;18.70;99.90;;;;;;5093048;28;20024;-69
2021/11/04 08:02:28;;;;;;;4.80;1.45;;;18.70;99.90;;;;;;5092811;28;20074;-69
2021/11/04 08:04:53;;;;;;;4.07;0.88;;;18.70;99.90;;;;;;5093089;28;20062;-69
2021/11/04 08:07:19;;;;;;;4.40;0.80;;;18.70;99.90;;;;;;5092724;28;20401;-68
2021/11/04 08:09:45;;;;;;;3.85;0.90;;;18.70;99.90;;;;;;5092926;28;20024;-69
2021/11/04 08:12:10;;;;;;;1.88;0.98;;;18.70;99.90;;;;;;5091273;28;20130;-68
2021/11/04 08:14:37;;;;;;;2.08;0.70;;;18.70;99.90;;;;;;5092839;28;20032;-68
2021/11/04 08:17:02;;;;;;;1.60;0.90;;;18.70;99.90;;;;;;5093391;28;20070;-68
2021/11/04 08:19:28;;;;;;;1.10;0.80;;;18.70;99.90;;;;;;5092602;28;20400;-69
2021/11/04 08:21:54;;;;;;;2.00;0.90;;;18.70;99.90;;;;;;5092822;28;20233;-68
2021/11/04 08:24:19;;;;;;;2.65;1.05;;;18.70;99.90;;;;;;5092565;28;20392;-69
2021/11/04 08:26:45;;;;;;;2.05;0.80;;;18.70;99.90;;;;;;5092708;28;20475;-70
2021/11/04 08:29:11;;;;;;;1.52;0.90;;;18.70;99.90;;;;;;5092279;28;20495;-69
2021/11/04 08:31:36;;;;;;;1.02;0.80;;;18.70;99.90;;;;;;5092706;28;20047;-68
2021/11/04 08:34:02;;;;;;;1.08;0.82;;;18.80;99.90;;;;;;5092925;28;20552;-69
2021/11/04 08:36:28;;;;;;;2.30;0.90;;;18.80;99.90;;;;;;5092510;28;20035;-69
2021/11/04 08:38:53;;;;;;;1.23;0.80;;;18.80;99.90;;;;;;5092511;28;20024;-68
2021/11/04 08:41:19;;;;;;;1.23;0.80;;;18.80;99.90;;;;;;5090925;28;20372;-70
2021/11/04 08:43:45;;;;;;;1.25;0.75;;;18.80;99.90;;;;;;5092439;28;20498;-69
2021/11/04 08:46:11;;;;;;;1.85;0.90;;;18.80;99.90;;;;;;5092384;28;20067;-68
2021/11/04 08:48:37;;;;;;;1.27;0.73;;;18.80;99.90;;;;;;5092311;28;20079;-68
2021/11/04 08:51:03;;;;;;;2.08;0.98;;;18.90;99.90;;;;;;5092459;28;20048;-69
2021/11/04 08:53:29;;;;;;;1.48;0.90;;;18.90;99.90;;;;;;5090755;28;20439;-68
2021/11/04 08:55:55;;;;;;;1.55;0.85;;;18.90;99.90;;;;;;5092256;28;20052;-69
2021/11/04 08:58:22;;;;;;;1.30;0.98;;;18.80;99.90;;;;;;5091444;28;20176;-68
2021/11/04 09:00:48;;;;;;;1.05;0.68;;;18.90;99.90;;;;;;5091717;28;20439;-67
2021/11/04 09:03:15;;;;;;;1.15;0.65;;;18.90;99.90;;;;;;5091704;28;20052;-69
2021/11/04 09:05:43;;;;;;;1.73;0.90;;;18.90;99.90;;;;;;5091890;28;20069;-68
2021/11/04 09:08:09;;;;;;;1.00;0.70;;;18.90;99.90;;;;;;5091773;28;20028;-68
2021/11/04 09:10:34;;;;;;;1.35;0.80;;;19.00;99.90;;;;;;5092289;28;20035;-69
2021/11/04 09:13:00;;;;;;;2.55;1.08;;;18.90;99.90;;;;;;5091637;28;20039;-68
2021/11/04 09:15:26;;;;;;;1.45;0.90;;;18.80;99.90;;;;;;5091203;28;20403;-68
2021/11/04 09:17:51;;;;;;;1.83;0.75;;;18.80;99.90;;;;;;5090024;28;20105;-69
2021/11/04 09:20:18;;;;;;;2.60;0.80;;;18.70;99.90;;;;;;5090101;28;20028;-67
2021/11/04 09:22:49;;;;;;;3.88;1.00;;;18.70;99.90;;;;;;5090349;28;20078;-68
2021/11/04 09:25:21;;;;;;;2.03;0.88;;;18.60;99.90;;;;;;5089089;28;20043;-68
2021/11/04 09:27:47;;;;;;;2.20;0.88;;;18.60;99.90;;;;;;5091196;28;20024;-70
2021/11/04 09:30:14;;;;;;;2.88;1.17;;;18.50;99.90;;;;;;5090886;28;20034;-69
2021/11/04 09:32:40;;;;;;;3.58;1.17;;;18.50;99.90;;;;;;5091195;28;20418;-69
2021/11/04 09:35:06;;;;;;;2.70;1.13;;;18.50;99.90;;;;;;5091202;28;20491;-70
2021/11/04 09:37:32;;;;;;;2.67;1.50;;;18.40;99.90;;;;;;5091301;28;20492;-69
2021/11/04 09:39:58;;;;;;;3.35;1.88;;;18.50;99.90;;;;;;5091536;28;20074;-71
2021/11/04 09:42:24;;;;;;;3.70;2.38;;;18.40;99.90;;;;;;5091150;28;20494;-69
2021/11/04 09:44:52;;;;;;;7.28;2.70;;;18.30;99.90;;;;;;5090374;28;20388;-69
2021/11/04 09:47:22;;;;;;;3.95;2.55;;;18.40;99.90;;;;;;5091079;28;20028;-68
2021/11/04 09:49:51;;;;;;;6.00;2.83;;;18.30;99.90;;;;;;5091313;28;20065;-69
2021/11/04 09:52:20;;;;;;;3.58;2.03;;;18.30;99.90;;;;;;5088153;28;20055;-69
2021/11/04 09:54:45;;;;;;;3.03;2.22;;;18.30;99.90;;;;;;5090775;28;20012;-70
2021/11/04 09:57:14;;;;;;;4.50;2.35;;;18.40;99.90;;;;;;5090193;28;20392;-72
2021/11/04 09:59:40;;;;;;;2.58;1.90;;;18.40;99.90;;;;;;5089953;28;20028;-68
2021/11/04 10:02:19;;;;;;;3.90;2.08;;;18.50;99.90;;;;;;5090648;28;20395;-71
2021/11/04 10:04:45;;;;;;;3.03;1.75;;;18.50;99.90;;;;;;5093147;28;20093;-68
2021/11/04 10:07:12;;;;;;;3.88;2.25;;;18.60;99.90;;;;;;5093658;28;20016;-71
2021/11/04 10:09:39;;;;;;;3.83;2.33;;;18.60;99.90;;;;;;5093935;28;20383;-69
2021/11/04 10:12:12;;;;;;;4.82;2.42;;;18.60;99.90;;;;;;5094016;28;20111;-70
2021/11/04 10:14:40;;;;;;;4.53;2.28;;;18.60;99.90;;;;;;5091688;28;20479;-73
2021/11/04 10:17:28;;;;;;;9.63;2.90;;;18.60;99.90;;;;;;5093931;28;20028;-70
2021/11/04 10:19:54;;;;;;;5.75;2.50;;;18.70;99.90;;;;;;5093883;28;20038;-67
2021/11/04 10:22:27;;;;;;;6.35;2.55;;;18.70;99.90;;;;;;5094612;28;20027;-68
2021/11/04 10:24:54;;;;;;;6.38;2.80;;;18.70;99.90;;;;;;5091517;28;20016;-68
2021/11/04 10:27:36;;;;;;;6.75;3.20;;;18.70;99.90;;;;;;5093872;28;20042;-69
2021/11/04 10:30:05;;;;;;;4.95;2.72;;;18.80;99.90;;;;;;5091633;28;20387;-68
2021/11/04 10:32:36;;;;;;;5.72;2.65;;;18.80;99.90;;;;;;5094909;28;20147;-70
2021/11/04 10:35:08;;;;;;;4.78;2.78;;;18.80;99.90;;;;;;5075341;28;20103;-70
2021/11/04 10:37:59;;;;;;;4.55;2.70;;;18.80;99.90;;;;;;5093335;28;20028;-68
2021/11/04 10:40:25;;;;;;;4.07;2.70;;;18.90;99.90;;;;;;5088401;28;20127;-71
2021/11/04 10:42:56;;;;;;;3.78;2.40;;;18.90;99.90;;;;;;5093769;28;20055;-72
2021/11/04 10:45:24;;;;;;;3.97;2.45;;;18.80;99.90;;;;;;5093083;28;20016;-70
2021/11/04 10:48:16;;;;;;;4.32;2.60;;;18.90;99.90;;;;;;5092801;28;20043;-71
2021/11/04 10:50:43;;;;;;;4.55;2.60;;;18.90;99.90;;;;;;5094029;28;20023;-72
2021/11/04 10:53:10;;;;;;;3.58;2.22;;;18.90;99.90;;;;;;5093928;28;20388;-72
2021/11/04 10:55:36;;;;;;;5.95;2.92;;;18.90;99.90;;;;;;5094077;28;20555;-71
2021/11/04 10:58:07;;;;;;;5.32;2.20;;;19.00;99.90;;;;;;5094731;28;20114;-71
2021/11/04 11:00:39;;;;;;;5.25;2.30;;;19.00;99.90;;;;;;5094693;28;20024;-73
2021/11/04 11:03:04;;;;;;;4.25;2.65;;;19.00;99.90;;;;;;5094282;28;20032;-71
2021/11/04 11:05:31;;;;;;;3.72;2.13;;;19.00;99.90;;;;;;5094490;28;20077;-72
2021/11/04 11:07:57;;;;;;;5.07;2.40;;;19.00;99.90;;;;;;5094273;28;20103;-72
2021/11/04 11:10:23;;;;;;;4.90;2.03;;;19.10;99.90;;;;;;5094001;28;20035;-72
2021/11/04 11:12:49;;;;;;;3.38;2.15;;;19.10;99.90;;;;;;5093240;28;20033;-71
2021/11/04 11:15:16;;;;;;;3.70;1.90;;;19.10;99.90;;;;;;5093237;28;20081;-70
2021/11/04 11:17:43;;;;;;;3.42;1.98;;;19.10;99.90;;;;;;5094079;28;20024;-72
2021/11/04 11:20:10;;;;;;;3.17;1.90;;;19.20;99.90;;;;;;5093746;28;20012;-72
2021/11/04 11:22:40;;;;;;;2.60;1.83;;;19.10;99.90;;;;;;5094077;28;20024;-70
2021/11/04 11:25:06;;;;;;;3.78;1.92;;;19.20;99.90;;;;;;5093801;28;20012;-73
2021/11/04 11:27:32;;;;;;;3.53;1.75;;;19.20;99.90;;;;;;5094222;28;20537;-72
2021/11/04 11:29:58;;;;;;;2.72;1.73;;;19.20;99.90;;;;;;5093797;28;20023;-71
2021/11/04 11:32:28;;;;;;;3.80;1.80;;;19.20;99.90;;;;;;5093449;28;20607;-71
2021/11/04 11:35:22;;;;;;;3.13;1.77;;;19.20;99.90;;;;;;5093705;28;20508;-72
2021/11/04 11:37:53;;;;;;;3.38;1.77;;;19.30;99.90;;;;;;5093862;28;20182;-71
2021/11/04 11:40:20;;;;;;;2.35;1.48;;;19.30;99.90;;;;;;5093342;28;20476;-71
2021/11/04 11:43:00;;;;;;;2.40;1.50;;;19.30;99.90;;;;;;5093638;28;20045;-72
2021/11/04 11:45:34;;;;;;;4.03;1.60;;;19.30;99.90;;;;;;5093177;28;20024;-72
2021/11/04 11:48:20;;;;;;;3.50;1.63;;;19.30;99.90;;;;;;5093744;28;20110;-73
2021/11/04 11:50:48;;;;;;;2.47;1.50;;;19.30;99.90;;;;;;5093244;28;20039;-72
2021/11/04 11:53:19;;;;;;;2.03;1.40;;;19.30;99.90;;;;;;5093071;28;20032;-72
2021/11/04 11:55:47;;;;;;;2.88;1.40;;;19.30;99.90;;;;;;5093383;28;20472;-71
2021/11/04 11:58:13;;;;;;;2.83;1.67;;;19.30;99.90;;;;;;5093030;28;20044;-73
2021/11/04 12:00:51;;;;;;;2.50;1.38;;;19.30;99.90;;;;;;5093284;28;20468;-72
2021/11/04 12:03:41;;;;;;;1.98;1.00;;;19.30;99.90;;;;;;5092837;28;20504;-72
2021/11/04 12:06:26;;;;;;;2.38;1.33;;;19.30;99.90;;;;;;5092802;28;20073;-71
2021/11/04 12:08:58;;;;;;;3.42;1.25;;;19.30;99.90;;;;;;5093181;28;20020;-71
2021/11/04 12:11:36;;;;;;;4.50;1.60;;;19.30;99.90;;;;;;5092756;28;20030;-71
2021/11/04 12:14:24;;;;;;;3.78;1.30;;;19.30;99.90;;;;;;5093152;28;20028;-71
2021/11/04 12:17:02;;;;;;;1.63;1.02;;;19.40;99.90;;;;;;5092874;28;20023;-70
2021/11/04 12:19:39;;;;;;;2.80;1.30;;;19.40;99.90;;;;;;5092682;28;20055;-71
2021/11/04 12:22:12;;;;;;;2.50;1.10;;;19.40;99.90;;;;;;5092905;28;20095;-71
2021/11/04 12:24:57;;;;;;;2.63;1.23;;;19.40;99.90;;;;;;5092205;28;20016;-72
2021/11/04 12:27:24;;;;;;;2.50;1.10;;;19.40;99.90;;;;;;5092505;28;20111;-71
2021/11/04 12:29:52;;;;;;;1.85;1.10;;;19.40;99.90;;;;;;5092611;28;20028;-71
2021/11/04 12:32:24;;;;;;;2.28;0.90;;;19.50;99.90;;;;;;5092289;28;20043;-70
2021/11/04 12:35:03;;;;;;;2.45;1.10;;;19.40;99.90;;;;;;5092634;28;20058;-70
2021/11/04 12:37:30;;;;;;;2.15;1.10;;;19.40;99.90;;;;;;5092267;28;20081;-71
2021/11/04 12:40:02;;;;;;;1.70;1.10;;;19.40;99.90;;;;;;5092462;28;20107;-71
2021/11/04 12:42:28;;;;;;;1.23;0.80;;;19.40;99.90;;;;;;5092213;28;20019;-70
2021/11/04 12:44:54;;;;;;;2.72;1.00;;;19.50;99.90;;;;;;5092336;28;20032;-70
2021/11/04 12:47:27;;;;;;;2.10;1.20;;;19.50;99.90;;;;;;5092118;28;20032;-71
2021/11/04 12:49:54;;;;;;;1.88;1.00;;;19.40;99.90;;;;;;5092319;28;20537;-71